createdAt,value
2018-01-26T00:01:17.599Z,19.90
2018-01-26T00:03:48.095Z,18.07
2018-01-26T00:06:18.246Z,16.40
2018-01-26T00:08:48.759Z,23.50
2018-01-26T00:11:19.358Z,19.37
2018-01-26T00:13:49.894Z,20.53
2018-01-26T00:16:20.450Z,21.93
2018-01-26T00:18:51.639Z,20.70
2018-01-26T00:21:22.523Z,23.13
2018-01-26T00:23:53.145Z,18.53
2018-01-26T00:26:23.532Z,27.00
2018-01-26T00:28:53.783Z,19.37
2018-01-26T00:31:24.061Z,21.03
2018-01-26T00:33:54.255Z,22.67
2018-01-26T00:36:24.214Z,25.70
2018-01-26T00:38:54.586Z,19.67
2018-01-26T00:41:26.205Z,21.03
2018-01-26T00:43:56.481Z,24.80
2018-01-26T00:46:27.519Z,21.67
2018-01-26T00:48:58.911Z,21.43
2018-01-26T00:51:30.379Z,23.83
2018-01-26T00:54:00.306Z,27.10
2018-01-26T00:56:31.450Z,24.23
2018-01-26T00:59:01.678Z,25.17
2018-01-26T01:01:32.405Z,25.90
2018-01-26T01:04:02.372Z,25.03
2018-01-26T01:06:34.116Z,23.77
2018-01-26T01:09:04.331Z,22.27
2018-01-26T01:11:34.646Z,21.70
2018-01-26T01:14:04.643Z,23.03
2018-01-26T01:16:35.686Z,24.67
2018-01-26T01:19:05.653Z,22.73
2018-01-26T01:21:35.667Z,23.43
2018-01-26T01:24:05.811Z,24.23
2018-01-26T01:26:36.384Z,28.40
2018-01-26T01:29:07.206Z,25.57
2018-01-26T01:31:37.236Z,29.20
2018-01-26T01:34:07.638Z,25.63
2018-01-26T01:36:38.641Z,25.70
2018-01-26T01:39:08.793Z,25.83
2018-01-26T01:41:40.370Z,23.43
2018-01-26T01:44:10.790Z,27.03
2018-01-26T01:46:42.226Z,26.47
2018-01-26T01:49:17.461Z,27.40
2018-01-26T01:51:49.414Z,27.43
2018-01-26T01:54:19.869Z,33.10
2018-01-26T01:56:51.803Z,28.60
2018-01-26T01:59:22.022Z,26.23
2018-01-26T02:01:52.385Z,26.10
2018-01-26T02:04:23.467Z,23.90
2018-01-26T02:06:54.186Z,30.03
2018-01-26T02:09:24.294Z,21.77
2018-01-26T02:11:54.466Z,23.70
2018-01-26T02:14:25.471Z,27.97
2018-01-26T02:16:56.048Z,25.93
2018-01-26T02:19:27.250Z,33.33
2018-01-26T02:21:58.006Z,27.43
2018-01-26T02:24:29.061Z,28.20
2018-01-26T02:26:59.431Z,30.03
2018-01-26T02:29:30.362Z,21.80
2018-01-26T02:32:01.103Z,29.60
2018-01-26T02:34:31.073Z,29.87
2018-01-26T02:37:01.564Z,27.77
2018-01-26T02:39:31.722Z,25.97
2018-01-26T02:42:03.597Z,25.87
2018-01-26T02:44:34.483Z,24.67
2018-01-26T02:47:11.350Z,26.47
2018-01-26T02:49:47.665Z,29.20
2018-01-26T02:52:22.537Z,26.33
2018-01-26T02:54:59.562Z,27.17
2018-01-26T02:57:35.002Z,26.23
2018-01-26T03:00:06.288Z,30.87
2018-01-26T03:02:36.934Z,40.63
2018-01-26T03:05:07.550Z,30.90
2018-01-26T03:07:37.808Z,34.63
2018-01-26T03:10:08.258Z,31.90
2018-01-26T03:12:38.681Z,37.30
2018-01-26T03:15:09.459Z,35.50
2018-01-26T03:17:40.400Z,36.00
2018-01-26T03:20:10.481Z,32.60
2018-01-26T03:22:41.071Z,27.20
2018-01-26T03:25:11.381Z,30.53
2018-01-26T03:27:42.656Z,31.67
2018-01-26T03:30:13.223Z,29.87
2018-01-26T03:32:44.353Z,37.73
2018-01-26T03:35:14.707Z,33.20
2018-01-26T03:37:45.036Z,32.13
2018-01-26T03:40:15.496Z,31.53
2018-01-26T03:42:45.536Z,35.97
2018-01-26T03:45:15.570Z,37.93
2018-01-26T03:47:46.200Z,38.03
2018-01-26T03:50:16.345Z,34.00
2018-01-26T03:52:47.663Z,33.73
2018-01-26T03:55:18.056Z,31.20
2018-01-26T03:57:48.477Z,34.33
2018-01-26T04:00:18.766Z,33.23
2018-01-26T04:02:49.424Z,31.20
2018-01-26T04:05:19.747Z,37.57
2018-01-26T04:07:50.195Z,36.87
2018-01-26T04:10:21.066Z,37.40
2018-01-26T04:12:52.384Z,33.33
2018-01-26T04:15:22.693Z,41.77
2018-01-26T04:17:53.572Z,40.27
2018-01-26T04:20:24.466Z,36.33
2018-01-26T04:22:54.689Z,39.87
2018-01-26T04:25:25.220Z,32.40
2018-01-26T04:27:56.221Z,43.97
2018-01-26T04:30:26.317Z,42.13
2018-01-26T04:32:58.039Z,42.13
2018-01-26T04:35:28.388Z,46.17
2018-01-26T04:37:58.561Z,36.20
2018-01-26T04:40:28.600Z,43.70
2018-01-26T04:42:59.636Z,37.87
2018-01-26T04:45:29.784Z,43.93
2018-01-26T04:48:00.752Z,46.23
2018-01-26T04:50:31.848Z,36.80
2018-01-26T04:53:01.908Z,36.17
2018-01-26T04:55:32.172Z,36.40
2018-01-26T04:58:03.383Z,44.50
2018-01-26T05:00:33.652Z,38.23
2018-01-26T05:03:04.618Z,38.37
2018-01-26T05:05:36.354Z,34.63
2018-01-26T05:08:07.503Z,37.37
2018-01-26T05:10:38.075Z,39.30
2018-01-26T05:13:08.354Z,33.50
2018-01-26T05:15:38.449Z,32.60
2018-01-26T05:18:08.624Z,34.70
2018-01-26T05:20:38.888Z,37.50
2018-01-26T05:23:09.066Z,37.00
2018-01-26T05:25:39.847Z,39.93
2018-01-26T05:28:10.392Z,37.50
2018-01-26T05:30:40.462Z,46.60
2018-01-26T05:33:10.491Z,49.93
2018-01-26T05:35:40.856Z,41.87
2018-01-26T05:38:11.200Z,42.40
2018-01-26T05:40:41.288Z,44.27
2018-01-26T05:43:12.508Z,45.97
2018-01-26T05:45:42.664Z,48.67
2018-01-26T05:48:12.823Z,47.87
2018-01-26T05:50:43.172Z,46.03
2018-01-26T05:53:13.728Z,49.97
2018-01-26T05:55:44.146Z,48.53
2018-01-26T05:58:14.268Z,46.47
2018-01-26T06:00:44.419Z,49.77
2018-01-26T06:03:14.840Z,59.40
2018-01-26T06:05:45.792Z,48.10
2018-01-26T06:08:16.697Z,45.87
2018-01-26T06:10:47.534Z,43.77
2018-01-26T06:13:17.640Z,54.93
2018-01-26T06:15:47.733Z,56.63
2018-01-26T06:18:17.999Z,46.07
2018-01-26T06:20:48.416Z,60.23
2018-01-26T06:23:18.710Z,53.33
2018-01-26T06:25:49.037Z,55.13
2018-01-26T06:28:20.168Z,51.80
2018-01-26T06:30:50.903Z,56.20
2018-01-26T06:33:21.080Z,44.83
2018-01-26T06:35:51.986Z,62.23
2018-01-26T06:38:22.245Z,43.80
2018-01-26T06:40:52.328Z,49.87
2018-01-26T06:43:22.402Z,54.30
2018-01-26T06:45:53.664Z,51.20
2018-01-26T06:48:23.838Z,53.60
2018-01-26T06:50:53.920Z,56.10
2018-01-26T06:53:24.043Z,48.63
2018-01-26T06:55:54.468Z,46.30
2018-01-26T06:58:24.721Z,51.13
2018-01-26T07:00:55.332Z,46.53
2018-01-26T07:03:25.417Z,47.73
2018-01-26T07:05:55.476Z,49.43
2018-01-26T07:08:25.719Z,46.70
2018-01-26T07:10:55.981Z,49.27
2018-01-26T07:13:26.074Z,48.07
2018-01-26T07:15:57.319Z,50.70
2018-01-26T07:18:27.464Z,45.20
2018-01-26T07:20:57.837Z,53.57
2018-01-26T07:23:29.541Z,50.30
2018-01-26T07:26:00.847Z,43.63
2018-01-26T07:28:32.131Z,62.67
2018-01-26T07:31:03.893Z,40.17
2018-01-26T07:33:38.349Z,39.20
2018-01-26T07:38:40.317Z,46.90
2018-01-26T07:41:10.505Z,46.10
2018-01-26T07:43:40.652Z,45.73
2018-01-26T07:46:11.279Z,42.20
2018-01-26T07:48:41.405Z,53.90
2018-01-26T07:51:11.606Z,53.37
2018-01-26T07:53:41.765Z,42.90
2018-01-26T07:56:12.000Z,52.30
2018-01-26T07:58:42.085Z,56.70
2018-01-26T08:01:13.675Z,44.47
2018-01-26T08:03:43.868Z,43.20
2018-01-26T08:06:14.061Z,54.37
2018-01-26T08:08:44.262Z,48.70
2018-01-26T08:11:15.333Z,50.50
2018-01-26T08:13:45.557Z,48.93
2018-01-26T08:16:16.019Z,42.20
2018-01-26T08:18:46.213Z,39.33
2018-01-26T08:21:16.528Z,42.07
2018-01-26T08:23:46.634Z,49.60
2018-01-26T08:26:17.124Z,45.40
2018-01-26T08:28:47.278Z,45.03
2018-01-26T08:31:17.401Z,44.53
2018-01-26T08:33:47.847Z,43.33
2018-01-26T08:36:17.985Z,42.60
2018-01-26T08:38:48.095Z,39.67
2018-01-26T08:41:19.183Z,37.93
2018-01-26T08:43:49.686Z,47.43
2018-01-26T08:46:19.869Z,40.43
2018-01-26T08:48:49.964Z,46.63
2018-01-26T08:51:20.134Z,39.53
2018-01-26T08:53:50.566Z,35.67
2018-01-26T08:56:20.844Z,43.10
2018-01-26T09:00:20.654Z,44.90
2018-01-26T09:02:50.972Z,48.97
2018-01-26T09:05:21.101Z,52.80
2018-01-26T09:07:51.220Z,43.07
2018-01-26T09:10:21.733Z,47.47
2018-01-26T09:12:52.704Z,42.87
2018-01-26T09:15:22.819Z,45.67
2018-01-26T09:17:53.285Z,38.13
2018-01-26T09:20:23.371Z,48.07
2018-01-26T09:22:53.456Z,48.43
2018-01-26T09:25:24.397Z,48.03
2018-01-26T09:27:54.557Z,44.50
2018-01-26T09:30:24.717Z,49.40
2018-01-26T09:32:55.618Z,41.87
2018-01-26T09:35:26.061Z,46.00
2018-01-26T09:37:56.305Z,51.40
2018-01-26T09:40:27.185Z,44.67
2018-01-26T09:42:57.592Z,54.03
2018-01-26T09:45:27.692Z,54.30
2018-01-26T09:47:58.724Z,49.17
2018-01-26T09:50:29.894Z,46.73
2018-01-26T09:53:00.465Z,46.90
2018-01-26T09:55:30.658Z,45.07
2018-01-26T09:58:00.701Z,39.50
2018-01-26T10:03:11.496Z,48.40
2018-01-26T10:05:42.380Z,47.77
2018-01-26T10:08:12.472Z,45.50
2018-01-26T10:10:42.530Z,51.60
2018-01-26T10:13:13.808Z,52.50
2018-01-26T10:15:44.073Z,48.10
2018-01-26T10:18:14.956Z,52.37
2018-01-26T10:20:45.097Z,45.30
2018-01-26T10:23:15.268Z,50.90
2018-01-26T10:25:45.377Z,49.47
2018-01-26T10:28:15.552Z,46.33
2018-01-26T10:30:45.660Z,51.57
2018-01-26T10:33:15.912Z,48.40
2018-01-26T10:35:46.293Z,44.33
2018-01-26T10:38:16.491Z,45.50
2018-01-26T10:40:46.607Z,48.07
2018-01-26T10:43:17.495Z,41.60
2018-01-26T10:45:47.620Z,45.07
2018-01-26T10:48:17.734Z,42.53
2018-01-26T10:50:48.173Z,48.20
2018-01-26T10:53:18.325Z,54.10
2018-01-26T10:55:48.453Z,51.57
2018-01-26T10:58:18.620Z,45.67
2018-01-26T11:00:49.528Z,46.73
2018-01-26T11:03:19.703Z,48.80
2018-01-26T11:05:50.996Z,52.03
2018-01-26T11:08:21.137Z,40.53
2018-01-26T11:10:51.376Z,45.37
2018-01-26T11:13:21.741Z,47.77
2018-01-26T11:15:51.942Z,54.60
2018-01-26T11:18:22.814Z,48.73
2018-01-26T11:20:53.021Z,49.10
2018-01-26T11:23:23.145Z,48.10
2018-01-26T11:25:53.989Z,47.97
2018-01-26T11:28:24.461Z,46.70
2018-01-26T11:30:54.559Z,42.33
2018-01-26T11:33:24.696Z,53.97
2018-01-26T11:35:54.989Z,49.33
2018-01-26T11:38:25.950Z,51.83
2018-01-26T11:40:56.088Z,49.33
2018-01-26T11:43:26.273Z,54.90
2018-01-26T11:45:56.818Z,38.60
2018-01-26T11:48:27.875Z,45.03
2018-01-26T11:50:58.004Z,39.90
2018-01-26T11:53:28.073Z,54.53
2018-01-26T11:55:58.490Z,49.43
2018-01-26T11:58:28.619Z,52.60
2018-01-26T12:00:58.793Z,48.60
2018-01-26T12:03:29.642Z,47.30
2018-01-26T12:06:00.852Z,56.67
2018-01-26T12:08:31.073Z,57.83
2018-01-26T12:11:01.965Z,53.07
2018-01-26T12:13:32.365Z,49.00
2018-01-26T12:16:02.524Z,45.13
2018-01-26T12:18:33.320Z,41.70
2018-01-26T12:21:04.282Z,45.73
2018-01-26T12:23:34.747Z,46.70
2018-01-26T12:26:05.067Z,56.00
2018-01-26T12:28:35.416Z,53.07
2018-01-26T12:31:06.788Z,54.33
2018-01-26T12:33:37.633Z,40.63
2018-01-26T12:36:07.757Z,43.63
2018-01-26T12:38:37.936Z,37.80
2018-01-26T12:41:08.104Z,45.03
2018-01-26T12:43:38.284Z,46.17
2018-01-26T12:46:09.180Z,50.83
2018-01-26T12:48:39.277Z,37.90
2018-01-26T12:51:09.346Z,50.00
2018-01-26T12:53:39.457Z,42.93
2018-01-26T12:56:09.564Z,38.10
2018-01-26T12:58:40.119Z,39.67
2018-01-26T13:01:11.125Z,38.30
2018-01-26T13:03:41.221Z,30.37
2018-01-26T13:06:11.315Z,41.27
2018-01-26T13:08:41.448Z,47.47
2018-01-26T13:11:11.539Z,43.60
2018-01-26T13:13:42.580Z,38.10
2018-01-26T13:16:13.767Z,47.87
2018-01-26T13:18:43.929Z,46.03
2018-01-26T13:21:14.837Z,49.37
2018-01-26T13:23:44.994Z,41.20
2018-01-26T13:26:15.952Z,55.47
2018-01-26T13:28:46.103Z,37.07
2018-01-26T13:32:45.559Z,42.63
2018-01-26T13:35:16.482Z,36.57
2018-01-26T13:37:47.159Z,37.23
2018-01-26T13:40:17.306Z,33.60
2018-01-26T13:42:47.572Z,42.47
2018-01-26T13:45:17.995Z,30.00
2018-01-26T13:47:48.552Z,32.03
2018-01-26T13:50:18.726Z,40.33
2018-01-26T13:52:48.864Z,35.43
2018-01-26T13:55:19.143Z,30.17
2018-01-26T13:57:49.349Z,33.83
2018-01-26T14:00:19.536Z,35.10
2018-01-26T14:02:49.650Z,33.10
2018-01-26T14:05:20.020Z,33.70
2018-01-26T14:07:50.220Z,37.33
2018-01-26T14:10:20.444Z,33.07
2018-01-26T14:12:50.645Z,34.27
2018-01-26T14:15:21.267Z,34.70
2018-01-26T14:17:51.359Z,34.90
2018-01-26T14:20:22.436Z,33.13
2018-01-26T14:22:53.167Z,31.13
2018-01-26T14:25:23.513Z,41.87
2018-01-26T14:27:55.353Z,35.50
2018-01-26T14:30:25.661Z,31.27
2018-01-26T14:32:56.270Z,40.57
2018-01-26T14:35:26.459Z,32.63
2018-01-26T14:37:56.633Z,37.10
2018-01-26T14:40:26.744Z,45.73
2018-01-26T14:42:57.444Z,39.40
2018-01-26T14:45:27.696Z,44.37
2018-01-26T14:47:57.876Z,37.37
2018-01-26T14:50:28.203Z,35.47
2018-01-26T14:52:58.422Z,31.83
2018-01-26T14:55:28.965Z,35.37
2018-01-26T14:57:59.085Z,33.17
2018-01-26T15:00:29.212Z,36.57
2018-01-26T15:03:00.289Z,36.53
2018-01-26T15:05:30.442Z,43.03
2018-01-26T15:08:01.345Z,36.43
2018-01-26T15:10:31.479Z,38.07
2018-01-26T15:13:02.357Z,36.67
2018-01-26T15:15:33.056Z,36.17
2018-01-26T15:18:04.273Z,30.73
2018-01-26T15:20:34.469Z,30.23
2018-01-26T15:23:05.127Z,39.40
2018-01-26T15:25:36.005Z,38.70
2018-01-26T15:28:06.227Z,41.87
2018-01-26T15:30:36.784Z,37.87
2018-01-26T15:33:06.851Z,42.47
2018-01-26T15:35:37.712Z,42.27
2018-01-26T15:38:08.192Z,35.53
2018-01-26T15:40:38.384Z,36.73
2018-01-26T15:43:08.660Z,41.17
2018-01-26T15:45:39.536Z,32.33
2018-01-26T15:48:10.021Z,33.27
2018-01-26T15:50:41.346Z,34.20
2018-01-26T15:53:11.436Z,38.67
2018-01-26T15:55:42.867Z,33.57
2018-01-26T15:58:13.934Z,32.87
2018-01-26T16:00:44.434Z,34.60
2018-01-26T16:03:14.553Z,41.07
2018-01-26T16:05:45.272Z,33.33
2018-01-26T16:08:15.600Z,32.17
2018-01-26T16:10:45.747Z,33.33
2018-01-26T16:13:15.865Z,33.20
2018-01-26T16:15:55.613Z,33.87
2018-01-26T16:18:25.898Z,37.63
2018-01-26T16:20:56.808Z,29.53
2018-01-26T16:23:28.076Z,36.83
2018-01-26T16:25:58.273Z,31.73
2018-01-26T16:28:28.567Z,31.23
2018-01-26T16:30:58.727Z,39.43
2018-01-26T16:33:29.033Z,27.53
2018-01-26T16:35:59.164Z,32.07
2018-01-26T16:38:29.641Z,38.00
2018-01-26T16:41:00.268Z,35.47
2018-01-26T16:43:30.386Z,44.67
2018-01-26T16:46:00.618Z,28.10
2018-01-26T16:48:32.520Z,35.60
2018-01-26T16:51:02.607Z,28.87
2018-01-26T16:53:33.036Z,29.43
2018-01-26T16:56:03.177Z,22.23
2018-01-26T16:58:35.154Z,34.67
2018-01-26T17:01:05.717Z,36.50
2018-01-26T17:03:35.939Z,34.67
2018-01-26T17:06:06.013Z,35.77
2018-01-26T17:08:36.374Z,31.17
2018-01-26T17:11:06.808Z,35.90
2018-01-26T17:13:36.929Z,32.57
2018-01-26T17:16:07.091Z,35.53
2018-01-26T17:18:37.284Z,23.77
2018-01-26T17:21:07.472Z,28.20
2018-01-26T17:23:38.708Z,29.73
2018-01-26T17:26:09.275Z,37.20
2018-01-26T17:28:39.413Z,37.47
2018-01-26T17:31:09.588Z,34.17
2018-01-26T17:33:40.900Z,27.37
2018-01-26T17:36:11.153Z,26.70
2018-01-26T17:38:42.058Z,28.03
2018-01-26T17:41:12.146Z,28.10
2018-01-26T17:43:42.718Z,29.17
2018-01-26T17:46:12.820Z,29.77
2018-01-26T17:48:44.069Z,29.00
2018-01-26T17:51:15.158Z,34.53
2018-01-26T17:53:46.205Z,25.77
2018-01-26T17:56:16.288Z,26.17
2018-01-26T17:58:46.387Z,24.57
2018-01-26T18:01:16.658Z,24.87
2018-01-26T18:03:47.671Z,26.13
2018-01-26T18:06:18.147Z,26.23
2018-01-26T18:08:50.414Z,20.37
2018-01-26T18:11:20.566Z,26.63
2018-01-26T18:13:51.796Z,27.60
2018-01-26T18:16:22.464Z,28.43
2018-01-26T18:18:54.229Z,22.40
2018-01-26T18:21:25.209Z,33.17
2018-01-26T18:23:56.541Z,27.00
2018-01-26T18:26:29.275Z,27.60
2018-01-26T18:29:01.738Z,36.83
2018-01-26T18:31:31.991Z,33.60
2018-01-26T18:34:03.062Z,36.07
2018-01-26T18:36:33.256Z,33.10
2018-01-26T18:39:03.660Z,33.10
2018-01-26T18:41:33.849Z,34.20
2018-01-26T18:44:05.041Z,38.80
2018-01-26T18:46:36.129Z,40.63
2018-01-26T18:49:06.318Z,39.90
2018-01-26T18:51:37.573Z,40.20
2018-01-26T18:54:07.621Z,45.83
2018-01-26T18:56:37.720Z,52.43
2018-01-26T18:59:07.992Z,36.33
2018-01-26T19:01:39.122Z,47.20
2018-01-26T19:04:09.417Z,43.77
2018-01-26T19:06:39.736Z,41.10
2018-01-26T19:09:09.845Z,51.83
2018-01-26T19:11:39.924Z,40.30
2018-01-26T19:14:10.109Z,46.83
2018-01-26T19:16:40.429Z,46.90
2018-01-26T19:19:10.936Z,44.27
2018-01-26T19:21:41.064Z,46.77
2018-01-26T19:24:11.449Z,35.87
2018-01-26T19:26:41.573Z,39.70
2018-01-26T19:29:12.248Z,45.90
2018-01-26T19:31:43.643Z,39.63
2018-01-26T19:34:13.764Z,40.90
2018-01-26T19:36:44.444Z,44.40
2018-01-26T19:39:14.586Z,39.63
2018-01-26T19:41:44.825Z,47.87
2018-01-26T19:44:17.686Z,41.40
2018-01-26T19:46:48.656Z,41.60
2018-01-26T19:49:19.173Z,40.53
2018-01-26T19:51:49.404Z,45.60
2018-01-26T19:58:57.293Z,50.93
2018-01-26T20:01:27.751Z,36.57
2018-01-26T20:04:04.192Z,31.33
2018-01-26T20:07:44.030Z,34.47
2018-01-26T20:10:15.322Z,38.23
2018-01-26T20:12:50.344Z,42.40
2018-01-26T20:15:20.841Z,39.73
2018-01-26T20:17:52.241Z,40.43
2018-01-26T20:20:22.442Z,37.20
2018-01-26T20:22:53.100Z,34.07
2018-01-26T20:25:23.305Z,37.83
2018-01-26T20:27:53.582Z,38.13
2018-01-26T20:30:23.716Z,41.13
2018-01-26T20:32:54.100Z,39.20
2018-01-26T20:35:24.260Z,41.40
2018-01-26T20:37:54.766Z,33.63
2018-01-26T20:40:25.007Z,37.83
2018-01-26T20:42:55.285Z,39.93
2018-01-26T20:45:26.610Z,40.63
2018-01-26T20:47:56.953Z,31.53
2018-01-26T20:50:29.101Z,47.03
2018-01-26T20:53:01.538Z,30.77
2018-01-26T20:55:31.909Z,33.20
2018-01-26T20:58:02.916Z,33.77
2018-01-26T21:00:33.092Z,28.27
2018-01-26T21:03:04.061Z,35.27
2018-01-26T21:05:34.180Z,34.43
2018-01-26T21:08:04.572Z,30.50
2018-01-26T21:10:35.446Z,31.50
2018-01-26T21:13:06.170Z,35.57
2018-01-26T21:15:36.810Z,39.23
2018-01-26T21:18:07.156Z,29.30
2018-01-26T21:20:37.377Z,31.93
2018-01-26T21:23:07.949Z,33.90
2018-01-26T21:25:39.500Z,33.20
2018-01-26T21:28:10.159Z,29.90
2018-01-26T21:30:40.793Z,40.00
2018-01-26T21:33:11.398Z,33.63
2018-01-26T21:35:41.935Z,41.17
2018-01-26T21:38:12.378Z,43.20
2018-01-26T21:40:43.489Z,40.67
2018-01-26T21:43:14.072Z,45.00
2018-01-26T21:45:44.816Z,44.23
2018-01-26T21:48:14.914Z,30.67
2018-01-26T21:50:45.236Z,39.63
2018-01-26T21:53:15.446Z,37.07
2018-01-26T21:55:45.880Z,51.83
2018-01-26T21:58:16.140Z,44.87
2018-01-26T22:00:46.368Z,31.93
2018-01-26T22:03:16.540Z,42.87
2018-01-26T22:05:47.315Z,31.37
2018-01-26T22:08:18.824Z,36.87
2018-01-26T22:10:48.976Z,31.17
2018-01-26T22:13:19.731Z,41.60
2018-01-26T22:15:51.722Z,37.70
2018-01-26T22:18:23.124Z,37.07
2018-01-26T22:20:54.468Z,39.23
2018-01-26T22:26:54.001Z,41.97
2018-01-26T22:29:24.553Z,35.80
2018-01-26T22:31:55.410Z,37.50
2018-01-26T22:34:26.733Z,35.60
2018-01-26T22:36:56.841Z,34.70
2018-01-26T22:39:26.920Z,36.40
2018-01-26T22:42:24.469Z,41.53
2018-01-26T22:44:54.941Z,34.23
2018-01-26T22:47:25.229Z,34.13
2018-01-26T22:49:56.005Z,36.77
2018-01-26T22:52:26.153Z,28.93
2018-01-26T22:54:57.166Z,39.27
2018-01-26T22:57:27.238Z,35.37
2018-01-26T22:59:57.360Z,30.73
2018-01-26T23:02:27.590Z,31.00
2018-01-26T23:04:58.004Z,38.30
2018-01-26T23:07:28.168Z,34.27
2018-01-26T23:09:58.994Z,37.57
2018-01-26T23:12:29.216Z,35.73
2018-01-26T23:14:59.450Z,39.40
2018-01-26T23:17:32.752Z,39.07
2018-01-26T23:20:03.632Z,38.10
2018-01-26T23:22:34.248Z,38.07
2018-01-26T23:25:04.355Z,32.07
2018-01-26T23:27:35.700Z,27.10
2018-01-26T23:30:06.654Z,38.40
2018-01-26T23:32:36.878Z,33.90
2018-01-26T23:35:07.500Z,30.87
2018-01-26T23:37:39.254Z,31.63
2018-01-26T23:58:30.968Z,32.47
